Time,TemperatureF,DewpointF,PressureIn,WindDirection,WindDirectionDegrees,WindSpeedMPH,WindSpeedGustMPH,Humidity,HourlyPrecipIn,Conditions,Clouds,dailyrainin,SoftwareType,DateUTC
2013-01-15 00:00:00,25.7,-4.4,30.35,SW,215,4.9,4.9,26,0.00,,CLR,0.00,VWS V14.01,2013-01-15 08:00:00,
2013-01-15 00:01:00,25.7,-4.4,30.34,SW,215,4.9,5.8,26,0.00,,,0.00,VWS V14.01,2013-01-15 08:01:00,
2013-01-15 00:02:00,25.7,-4.4,30.34,SW,215,3.6,4.9,26,0.00,,,0.00,VWS V14.01,2013-01-15 08:02:00,
2013-01-15 00:03:00,25.5,-4.6,30.34,SW,216,3.6,3.6,26,0.00,,,0.00,VWS V14.01,2013-01-15 08:03:00,
2013-01-15 00:04:00,25.5,-4.6,30.34,SW,216,4.0,4.0,26,0.00,,,0.00,VWS V14.01,2013-01-15 08:04:00,
2013-01-15 00:05:00,25.5,-4.6,30.35,SW,217,3.1,4.0,26,0.00,,CLR,0.00,VWS V14.01,2013-01-15 08:05:00,
2013-01-15 00:06:00,25.5,-4.6,30.34,SW,217,4.0,4.0,26,0.00,,,0.00,VWS V14.01,2013-01-15 08:06:00,
2013-01-15 00:07:00,25.3,-4.7,30.34,SW,217,0.0,4.0,26,0.00,,,0.00,VWS V14.01,2013-01-15 08:07:00,
2013-01-15 00:08:00,25.3,-4.7,30.34,SW,217,0.0,4.9,26,0.00,,,0.00,VWS V14.01,2013-01-15 08:08:00,
2013-01-15 00:09:00,25.3,-4.7,30.34,SW,217,5.8,5.8,26,0.00,,,0.00,VWS V14.01,2013-01-15 08:09:00,
2013-01-15 00:10:00,25.3,-4.7,30.35,SW,217,6.7,6.7,26,0.00,,CLR,0.00,VWS V14.01,2013-01-15 08:10:00,
2013-01-15 00:11:00,25.3,-4.7,30.34,SW,217,5.4,5.4,26,0.00,,,0.00,VWS V14.01,2013-01-15 08:11:00,
2013-01-15 00:12:00,25.2,-4.9,30.34,SSW,206,5.4,6.7,26,0.00,,,0.00,VWS V14.01,2013-01-15 08:12:00,
2013-01-15 00:13:00,25.2,-4.9,30.34,SSW,200,3.6,5.4,26,0.00,,,0.00,VWS V14.01,2013-01-15 08:13:00,
2013-01-15 00:14:00,25.2,-4.9,30.34,SSW,201,4.9,4.9,26,0.00,,,0.00,VWS V14.01,2013-01-15 08:14:00,
2013-01-15 00:15:00,25.2,-4.9,30.35,SSW,202,0.0,0.0,26,0.00,,CLR,0.00,VWS V14.01,2013-01-15 08:15:00,
2013-01-15 00:16:00,25.2,-4.9,30.34,SSW,202,0.0,0.0,26,0.00,,,0.00,VWS V14.01,2013-01-15 08:16:00,
2013-01-15 00:17:00,25.2,-4.9,30.34,SSW,201,0.0,0.0,26,0.00,,,0.00,VWS V14.01,2013-01-15 08:17:00,
2013-01-15 00:18:00,25.2,-4.9,30.34,SSW,201,0.0,0.0,26,0.00,,,0.00,VWS V14.01,2013-01-15 08:18:00,
2013-01-15 00:19:00,25.2,-4.9,30.34,SSW,201,0.0,0.0,26,0.00,,,0.00,VWS V14.01,2013-01-15 08:19:00,
2013-01-15 00:20:00,25.0,-5.1,30.35,SSW,201,0.0,0.0,26,0.00,,CLR,0.00,VWS V14.01,2013-01-15 08:20:00,
2013-01-15 00:21:00,25.2,-4.9,30.34,SSW,201,0.0,0.0,26,0.00,,,0.00,VWS V14.01,2013-01-15 08:21:00,
2013-01-15 00:22:00,25.0,-5.1,30.34,SSW,201,4.0,4.0,26,0.00,,,0.00,VWS V14.01,2013-01-15 08:22:00,
2013-01-15 00:23:00,25.0,-5.1,30.34,SSW,200,0.0,4.0,26,0.00,,,0.00,VWS V14.01,2013-01-15 08:23:00,
2013-01-15 00:24:00,25.0,-5.1,30.34,SSW,201,0.0,0.0,26,0.00,,,0.00,VWS V14.01,2013-01-15 08:24:00,
2013-01-15 00:25:00,25.0,-5.1,30.34,SSW,201,0.0,0.0,26,0.00,,,0.00,VWS V14.01,2013-01-15 08:25:00,
2013-01-15 00:26:00,25.0,-5.1,30.35,SSW,200,0.0,0.0,26,0.00,,CLR,0.00,VWS V14.01,2013-01-15 08:26:00,
2013-01-15 00:27:00,25.0,-5.1,30.34,SSW,201,0.0,0.0,26,0.00,,,0.00,VWS V14.01,2013-01-15 08:27:00,
2013-01-15 00:28:00,25.0,-5.1,30.34,SSW,203,0.0,0.0,26,0.00,,,0.00,VWS V14.01,2013-01-15 08:28:00,
2013-01-15 00:29:00,25.0,-5.1,30.34,SSW,205,0.0,0.0,26,0.00,,,0.00,VWS V14.01,2013-01-15 08:29:00,
2013-01-15 00:30:00,25.0,-5.1,30.35,SSW,205,0.0,0.0,26,0.00,,CLR,0.00,VWS V14.01,2013-01-15 08:30:00,
2013-01-15 00:31:00,25.0,-5.1,30.34,SSW,205,0.0,0.0,26,0.00,,,0.00,VWS V14.01,2013-01-15 08:31:00,
2013-01-15 00:32:00,25.2,-4.9,30.34,SSW,205,0.0,0.0,26,0.00,,,0.00,VWS V14.01,2013-01-15 08:32:00,
2013-01-15 00:33:00,25.2,-4.9,30.34,SSW,205,0.0,0.0,26,0.00,,,0.00,VWS V14.01,2013-01-15 08:33:00,
2013-01-15 00:34:00,25.2,-4.9,30.34,SSW,205,0.0,0.0,26,0.00,,,0.00,VWS V14.01,2013-01-15 08:34:00,
2013-01-15 00:35:00,25.2,-4.9,30.37,SSW,205,0.0,0.0,26,0.00,,CLR,0.00,VWS V14.01,2013-01-15 08:35:00,
2013-01-15 00:36:00,25.2,-4.9,30.38,SSW,205,0.0,0.0,26,0.00,,,0.00,VWS V14.01,2013-01-15 08:36:00,
2013-01-15 00:37:00,25.0,-5.1,30.38,SSW,205,0.0,0.0,26,0.00,,,0.00,VWS V14.01,2013-01-15 08:37:00,
2013-01-15 00:38:00,25.0,-5.1,30.38,SSW,205,0.0,0.0,26,0.00,,,0.00,VWS V14.01,2013-01-15 08:38:00,
2013-01-15 00:39:00,25.0,-5.1,30.38,SSW,205,0.0,0.0,26,0.00,,,0.00,VWS V14.01,2013-01-15 08:39:00,
2013-01-15 00:40:00,25.0,-5.1,30.37,SSW,205,0.0,0.0,26,0.00,,CLR,0.00,VWS V14.01,2013-01-15 08:40:00,
2013-01-15 00:41:00,25.0,-5.1,30.38,SSW,205,0.0,0.0,26,0.00,,,0.00,VWS V14.01,2013-01-15 08:41:00,
2013-01-15 00:42:00,25.0,-5.1,30.38,SSW,204,5.4,5.4,26,0.00,,,0.00,VWS V14.01,2013-01-15 08:42:00,
2013-01-15 00:43:00,25.0,-5.1,30.38,SSW,203,0.0,5.4,26,0.00,,,0.00,VWS V14.01,2013-01-15 08:43:00,
2013-01-15 00:44:00,25.2,-4.9,30.38,SSW,202,0.0,0.0,26,0.00,,,0.00,VWS V14.01,2013-01-15 08:44:00,
2013-01-15 00:45:00,25.2,-4.9,30.37,SSW,203,0.0,0.0,26,0.00,,CLR,0.00,VWS V14.01,2013-01-15 08:45:00,
2013-01-15 00:46:00,25.2,-4.9,30.38,SSW,202,0.0,0.0,26,0.00,,,0.00,VWS V14.01,2013-01-15 08:46:00,
2013-01-15 00:47:00,25.2,-4.9,30.38,SSW,203,0.0,0.0,26,0.00,,,0.00,VWS V14.01,2013-01-15 08:47:00,
2013-01-15 00:48:00,25.0,-5.1,30.38,SSW,205,0.0,0.0,26,0.00,,,0.00,VWS V14.01,2013-01-15 08:48:00,
2013-01-15 00:49:00,25.0,-5.1,30.38,SSW,205,0.0,0.0,26,0.00,,,0.00,VWS V14.01,2013-01-15 08:49:00,
2013-01-15 00:50:00,25.0,-5.1,30.37,SSW,202,5.4,5.4,26,0.00,,CLR,0.00,VWS V14.01,2013-01-15 08:50:00,
2013-01-15 00:51:00,25.0,-5.1,30.38,SSW,202,5.4,5.4,26,0.00,,,0.00,VWS V14.01,2013-01-15 08:51:00,
2013-01-15 00:52:00,25.0,-5.1,30.38,SSW,201,4.0,5.4,26,0.00,,,0.00,VWS V14.01,2013-01-15 08:52:00,
2013-01-15 00:53:00,25.0,-5.1,30.38,SSW,200,0.0,4.0,26,0.00,,,0.00,VWS V14.01,2013-01-15 08:53:00,
2013-01-15 00:54:00,25.0,-5.1,30.38,SSW,200,0.0,0.0,26,0.00,,,0.00,VWS V14.01,2013-01-15 08:54:00,
2013-01-15 00:55:00,25.0,-5.1,30.37,SSW,195,0.0,0.0,26,0.00,,CLR,0.00,VWS V14.01,2013-01-15 08:55:00,
2013-01-15 00:56:00,25.0,-5.1,30.38,SSW,196,0.0,3.6,26,0.00,,,0.00,VWS V14.01,2013-01-15 08:56:00,
2013-01-15 00:57:00,25.0,-5.1,30.38,SSW,195,0.0,0.0,26,0.00,,,0.00,VWS V14.01,2013-01-15 08:57:00,
2013-01-15 00:58:00,25.0,-5.1,30.38,SSW,195,0.0,0.0,26,0.00,,,0.00,VWS V14.01,2013-01-15 08:58:00,
2013-01-15 00:59:00,24.8,-4.4,30.38,SSW,195,0.0,0.0,27,0.00,,,0.00,VWS V14.01,2013-01-15 08:59:00,
2013-01-15 01:00:00,24.8,-4.4,30.37,SSW,195,4.0,4.0,27,0.00,,CLR,0.00,VWS V14.01,2013-01-15 09:00:00,
2013-01-15 01:01:00,24.8,-4.4,30.38,SSW,195,4.0,4.0,27,0.00,,,0.00,VWS V14.01,2013-01-15 09:01:00,
2013-01-15 01:02:00,24.6,-4.6,30.38,SSW,195,2.2,4.0,27,0.00,,,0.00,VWS V14.01,2013-01-15 09:02:00,
2013-01-15 01:03:00,24.6,-4.6,30.38,SSW,195,3.1,3.6,27,0.00,,,0.00,VWS V14.01,2013-01-15 09:03:00,
2013-01-15 01:04:00,24.6,-4.6,30.38,SSW,194,0.0,4.0,27,0.00,,,0.00,VWS V14.01,2013-01-15 09:04:00,
2013-01-15 01:05:00,24.6,-4.6,30.37,South,177,3.6,3.6,27,0.00,,CLR,0.00,VWS V14.01,2013-01-15 09:05:00,
2013-01-15 01:06:00,24.6,-4.6,30.38,South,177,3.6,7.6,27,0.00,,,0.00,VWS V14.01,2013-01-15 09:06:00,
2013-01-15 01:07:00,24.6,-4.6,30.38,South,178,2.7,4.9,27,0.00,,,0.00,VWS V14.01,2013-01-15 09:07:00,
2013-01-15 01:08:00,24.6,-4.6,30.38,South,178,3.1,3.1,27,0.00,,,0.00,VWS V14.01,2013-01-15 09:08:00,
2013-01-15 01:09:00,24.6,-4.6,30.38,South,176,3.1,3.6,27,0.00,,,0.00,VWS V14.01,2013-01-15 09:09:00,
2013-01-15 01:10:00,24.6,-4.6,30.37,South,177,0.0,0.0,27,0.00,,CLR,0.00,VWS V14.01,2013-01-15 09:10:00,
2013-01-15 01:11:00,24.6,-4.6,30.38,South,177,0.0,0.0,27,0.00,,,0.00,VWS V14.01,2013-01-15 09:11:00,
2013-01-15 01:12:00,24.6,-4.6,30.38,South,178,0.0,0.0,27,0.00,,,0.00,VWS V14.01,2013-01-15 09:12:00,
2013-01-15 01:13:00,24.6,-4.6,30.38,South,184,2.7,4.5,27,0.00,,,0.00,VWS V14.01,2013-01-15 09:13:00,
2013-01-15 01:14:00,24.6,-4.6,30.38,South,185,0.0,2.7,27,0.00,,,0.00,VWS V14.01,2013-01-15 09:14:00,
2013-01-15 01:15:00,24.4,-4.7,30.37,SW,216,0.0,0.0,27,0.00,,CLR,0.00,VWS V14.01,2013-01-15 09:15:00,
2013-01-15 01:16:00,24.4,-4.7,30.38,SW,216,0.0,0.0,27,0.00,,,0.00,VWS V14.01,2013-01-15 09:16:00,
2013-01-15 01:17:00,24.4,-4.7,30.38,SW,216,0.0,0.0,27,0.00,,,0.00,VWS V14.01,2013-01-15 09:17:00,
2013-01-15 01:18:00,24.4,-4.7,30.38,SSW,213,5.4,5.4,27,0.00,,,0.00,VWS V14.01,2013-01-15 09:18:00,
2013-01-15 01:19:00,24.4,-4.7,30.38,SSW,213,3.1,5.4,27,0.00,,,0.00,VWS V14.01,2013-01-15 09:19:00,
2013-01-15 01:20:00,24.4,-4.7,30.37,SW,214,3.6,3.6,27,0.00,,CLR,0.00,VWS V14.01,2013-01-15 09:20:00,
2013-01-15 01:21:00,24.4,-4.7,30.38,SSW,212,0.0,3.1,27,0.00,,,0.00,VWS V14.01,2013-01-15 09:21:00,
2013-01-15 01:22:00,24.4,-4.7,30.38,SW,228,4.9,4.9,27,0.00,,,0.00,VWS V14.01,2013-01-15 09:22:00,
2013-01-15 01:23:00,24.4,-4.7,30.38,SW,225,3.6,5.8,27,0.00,,,0.00,VWS V14.01,2013-01-15 09:23:00,
2013-01-15 01:24:00,24.4,-4.7,30.38,West,259,6.3,7.6,27,0.00,,,0.00,VWS V14.01,2013-01-15 09:24:00,
2013-01-15 01:25:00,24.6,-4.6,30.37,West,259,0.0,0.0,27,0.00,,CLR,0.00,VWS V14.01,2013-01-15 09:25:00,
2013-01-15 01:26:00,24.6,-4.6,30.38,West,259,0.0,0.0,27,0.00,,,0.00,VWS V14.01,2013-01-15 09:26:00,
2013-01-15 01:27:00,24.6,-4.6,30.38,WSW,255,7.2,7.2,27,0.00,,,0.00,VWS V14.01,2013-01-15 09:27:00,
2013-01-15 01:28:00,24.6,-4.6,30.38,WSW,254,3.6,7.2,27,0.00,,,0.00,VWS V14.01,2013-01-15 09:28:00,
2013-01-15 01:29:00,24.6,-4.6,30.38,WSW,246,3.1,4.0,27,0.00,,,0.00,VWS V14.01,2013-01-15 09:29:00,
2013-01-15 01:30:00,24.6,-4.6,30.37,WSW,246,3.6,4.0,27,0.00,,CLR,0.00,VWS V14.01,2013-01-15 09:30:00,
2013-01-15 01:31:00,24.6,-4.6,30.38,WSW,246,3.6,4.0,27,0.00,,,0.00,VWS V14.01,2013-01-15 09:31:00,
2013-01-15 01:32:00,24.8,-4.4,30.38,WSW,248,4.0,4.0,27,0.00,,,0.00,VWS V14.01,2013-01-15 09:32:00,
2013-01-15 01:33:00,24.8,-4.4,30.38,WSW,248,2.7,4.0,27,0.00,,,0.00,VWS V14.01,2013-01-15 09:33:00,
2013-01-15 01:34:00,24.8,-4.4,30.38,WSW,251,4.0,5.4,27,0.00,,,0.00,VWS V14.01,2013-01-15 09:34:00,
2013-01-15 01:35:00,24.8,-4.4,30.35,WSW,251,5.8,5.8,27,0.00,,CLR,0.00,VWS V14.01,2013-01-15 09:35:00,
2013-01-15 01:36:00,24.8,-4.4,30.34,WSW,251,5.8,5.8,27,0.00,,,0.00,VWS V14.01,2013-01-15 09:36:00,
2013-01-15 01:37:00,24.8,-4.4,30.34,WSW,250,3.6,5.8,27,0.00,,,0.00,VWS V14.01,2013-01-15 09:37:00,
2013-01-15 01:38:00,24.8,-4.4,30.34,WSW,249,3.6,4.0,27,0.00,,,0.00,VWS V14.01,2013-01-15 09:38:00,
2013-01-15 01:39:00,24.8,-4.4,30.34,WSW,248,5.4,5.4,27,0.00,,,0.00,VWS V14.01,2013-01-15 09:39:00,
2013-01-15 01:40:00,24.8,-4.4,30.35,WSW,244,4.0,4.9,27,0.00,,CLR,0.00,VWS V14.01,2013-01-15 09:40:00,
2013-01-15 01:41:00,24.8,-4.4,30.34,WSW,244,4.0,4.9,27,0.00,,,0.00,VWS V14.01,2013-01-15 09:41:00,
2013-01-15 01:42:00,24.8,-4.4,30.34,WSW,244,2.7,4.0,27,0.00,,,0.00,VWS V14.01,2013-01-15 09:42:00,
2013-01-15 01:43:00,24.8,-4.4,30.34,WSW,245,5.4,5.4,27,0.00,,,0.00,VWS V14.01,2013-01-15 09:43:00,
2013-01-15 01:44:00,24.8,-4.4,30.34,WSW,248,2.7,5.8,27,0.00,,,0.00,VWS V14.01,2013-01-15 09:44:00,
2013-01-15 01:45:00,24.8,-4.4,30.35,WSW,245,3.1,5.4,27,0.00,,CLR,0.00,VWS V14.01,2013-01-15 09:45:00,
2013-01-15 01:46:00,24.8,-4.4,30.34,WSW,245,3.1,5.4,27,0.00,,,0.00,VWS V14.01,2013-01-15 09:46:00,
2013-01-15 01:47:00,24.8,-4.4,30.34,WSW,245,0.0,3.1,27,0.00,,,0.00,VWS V14.01,2013-01-15 09:47:00,
2013-01-15 01:48:00,24.8,-4.4,30.34,WSW,245,0.0,0.0,27,0.00,,,0.00,VWS V14.01,2013-01-15 09:48:00,
2013-01-15 01:49:00,24.8,-4.4,30.34,WSW,245,0.0,0.0,27,0.00,,,0.00,VWS V14.01,2013-01-15 09:49:00,
2013-01-15 01:50:00,24.6,-4.6,30.37,WSW,245,0.0,0.0,27,0.00,,CLR,0.00,VWS V14.01,2013-01-15 09:50:00,
2013-01-15 01:51:00,24.6,-4.6,30.38,WSW,245,0.0,0.0,27,0.00,,,0.00,VWS V14.01,2013-01-15 09:51:00,
2013-01-15 01:53:00,24.6,-4.6,30.38,WSW,245,0.0,0.0,27,0.00,,,0.00,VWS V14.01,2013-01-15 09:53:00,
2013-01-15 01:54:00,24.6,-4.6,30.38,WSW,245,0.0,0.0,27,0.00,,,0.00,VWS V14.01,2013-01-15 09:54:00,
2013-01-15 01:55:00,24.4,-4.7,30.37,WSW,245,0.0,0.0,27,0.00,,CLR,0.00,VWS V14.01,2013-01-15 09:55:00,
2013-01-15 01:56:00,24.4,-4.7,30.38,WSW,245,0.0,0.0,27,0.00,,,0.00,VWS V14.01,2013-01-15 09:56:00,
2013-01-15 01:57:00,24.4,-4.7,30.38,WSW,246,2.7,3.1,27,0.00,,,0.00,VWS V14.01,2013-01-15 09:57:00,
2013-01-15 01:58:00,24.4,-4.7,30.38,WSW,247,0.0,3.1,27,0.00,,,0.00,VWS V14.01,2013-01-15 09:58:00,
2013-01-15 01:59:00,24.3,-4.9,30.38,WSW,247,0.0,0.0,27,0.00,,,0.00,VWS V14.01,2013-01-15 09:59:00,
2013-01-15 02:00:00,24.1,-5.1,30.37,WSW,247,0.0,0.0,27,0.00,,CLR,0.00,VWS V14.01,2013-01-15 10:00:00,
2013-01-15 02:01:00,23.9,-5.2,30.38,WSW,247,0.0,0.0,27,0.00,,,0.00,VWS V14.01,2013-01-15 10:01:00,
2013-01-15 02:02:00,23.7,-5.4,30.38,WSW,247,0.0,0.0,27,0.00,,,0.00,VWS V14.01,2013-01-15 10:02:00,
2013-01-15 02:03:00,23.5,-5.5,30.38,WSW,247,0.0,0.0,27,0.00,,,0.00,VWS V14.01,2013-01-15 10:03:00,
2013-01-15 02:04:00,23.5,-5.5,30.38,WSW,248,0.0,0.0,27,0.00,,,0.00,VWS V14.01,2013-01-15 10:04:00,
2013-01-15 02:05:00,23.4,-5.7,30.37,WSW,248,0.0,0.0,27,0.00,,CLR,0.00,VWS V14.01,2013-01-15 10:05:00,
2013-01-15 02:06:00,23.4,-5.7,30.38,WSW,248,0.0,0.0,27,0.00,,,0.00,VWS V14.01,2013-01-15 10:06:00,
2013-01-15 02:07:00,23.2,-5.8,30.38,WSW,247,0.0,0.0,27,0.00,,,0.00,VWS V14.01,2013-01-15 10:07:00,
2013-01-15 02:08:00,23.0,-6.0,30.38,WSW,247,0.0,0.0,27,0.00,,,0.00,VWS V14.01,2013-01-15 10:08:00,
2013-01-15 02:09:00,22.8,-6.1,30.38,WSW,247,0.0,0.0,27,0.00,,,0.00,VWS V14.01,2013-01-15 10:09:00,
2013-01-15 02:10:00,22.6,-6.3,30.37,WSW,247,0.0,0.0,27,0.00,,CLR,0.00,VWS V14.01,2013-01-15 10:10:00,
2013-01-15 02:11:00,22.6,-6.3,30.38,WSW,248,0.0,0.0,27,0.00,,,0.00,VWS V14.01,2013-01-15 10:11:00,
2013-01-15 02:12:00,22.5,-6.5,30.38,WSW,247,0.0,0.0,27,0.00,,,0.00,VWS V14.01,2013-01-15 10:12:00,
2013-01-15 02:13:00,22.3,-6.6,30.38,WSW,248,0.0,0.0,27,0.00,,,0.00,VWS V14.01,2013-01-15 10:13:00,
2013-01-15 02:14:00,22.1,-6.8,30.38,WSW,247,0.0,0.0,27,0.00,,,0.00,VWS V14.01,2013-01-15 10:14:00,
2013-01-15 02:15:00,21.9,-6.9,30.37,WSW,247,0.0,0.0,27,0.00,,CLR,0.00,VWS V14.01,2013-01-15 10:15:00,
2013-01-15 02:16:00,21.9,-6.9,30.38,WSW,248,0.0,0.0,27,0.00,,,0.00,VWS V14.01,2013-01-15 10:16:00,
2013-01-15 02:17:00,21.9,-6.9,30.38,WSW,248,0.0,0.0,27,0.00,,,0.00,VWS V14.01,2013-01-15 10:17:00,
2013-01-15 02:18:00,21.9,-6.9,30.38,WSW,248,0.0,0.0,27,0.00,,,0.00,VWS V14.01,2013-01-15 10:18:00,
2013-01-15 02:19:00,21.7,-7.1,30.38,WSW,247,0.0,0.0,27,0.00,,,0.00,VWS V14.01,2013-01-15 10:19:00,
2013-01-15 02:20:00,21.7,-7.1,30.37,WSW,247,0.0,0.0,27,0.00,,CLR,0.00,VWS V14.01,2013-01-15 10:20:00,
2013-01-15 02:21:00,21.7,-7.1,30.38,WSW,247,0.0,0.0,27,0.00,,,0.00,VWS V14.01,2013-01-15 10:21:00,
2013-01-15 02:22:00,21.7,-7.1,30.38,WSW,248,0.0,0.0,27,0.00,,,0.00,VWS V14.01,2013-01-15 10:22:00,
2013-01-15 02:23:00,21.7,-7.1,30.38,WSW,248,0.0,0.0,27,0.00,,,0.00,VWS V14.01,2013-01-15 10:23:00,
2013-01-15 02:24:00,21.6,-7.2,30.38,WSW,247,0.0,0.0,27,0.00,,,0.00,VWS V14.01,2013-01-15 10:24:00,
2013-01-15 02:25:00,21.6,-7.2,30.37,WSW,248,0.0,0.0,27,0.00,,CLR,0.00,VWS V14.01,2013-01-15 10:25:00,
2013-01-15 02:26:00,21.6,-7.2,30.38,WSW,247,0.0,0.0,27,0.00,,,0.00,VWS V14.01,2013-01-15 10:26:00,
2013-01-15 02:27:00,21.6,-7.2,30.38,WSW,247,0.0,0.0,27,0.00,,,0.00,VWS V14.01,2013-01-15 10:27:00,
2013-01-15 02:28:00,21.6,-7.2,30.38,WSW,248,0.0,0.0,27,0.00,,,0.00,VWS V14.01,2013-01-15 10:28:00,
2013-01-15 02:29:00,21.6,-7.2,30.38,WSW,247,0.0,0.0,27,0.00,,,0.00,VWS V14.01,2013-01-15 10:29:00,
2013-01-15 02:30:00,21.7,-7.1,30.37,WSW,247,0.0,0.0,27,0.00,,CLR,0.00,VWS V14.01,2013-01-15 10:30:00,
2013-01-15 02:31:00,21.7,-7.1,30.38,WSW,247,0.0,0.0,27,0.00,,,0.00,VWS V14.01,2013-01-15 10:31:00,
2013-01-15 02:32:00,21.7,-7.1,30.38,WSW,247,0.0,0.0,27,0.00,,,0.00,VWS V14.01,2013-01-15 10:32:00,
2013-01-15 02:33:00,21.7,-7.1,30.38,WSW,248,0.0,0.0,27,0.00,,,0.00,VWS V14.01,2013-01-15 10:33:00,
2013-01-15 02:34:00,21.7,-7.1,30.38,WSW,248,0.0,0.0,27,0.00,,,0.00,VWS V14.01,2013-01-15 10:34:00,
2013-01-15 02:35:00,21.7,-7.1,30.37,WSW,248,0.0,0.0,27,0.00,,CLR,0.00,VWS V14.01,2013-01-15 10:35:00,
2013-01-15 02:36:00,21.7,-7.1,30.38,WSW,248,0.0,0.0,27,0.00,,,0.00,VWS V14.01,2013-01-15 10:36:00,
2013-01-15 02:37:00,21.7,-7.1,30.38,WSW,247,0.0,0.0,27,0.00,,,0.00,VWS V14.01,2013-01-15 10:37:00,
2013-01-15 02:38:00,21.7,-7.1,30.38,WSW,247,0.0,0.0,27,0.00,,,0.00,VWS V14.01,2013-01-15 10:38:00,
2013-01-15 02:39:00,21.7,-7.1,30.38,WSW,247,0.0,0.0,27,0.00,,,0.00,VWS V14.01,2013-01-15 10:39:00,
2013-01-15 02:40:00,21.7,-7.1,30.37,WSW,248,0.0,0.0,27,0.00,,CLR,0.00,VWS V14.01,2013-01-15 10:40:00,
2013-01-15 02:41:00,21.7,-7.1,30.38,WSW,248,0.0,0.0,27,0.00,,,0.00,VWS V14.01,2013-01-15 10:41:00,
2013-01-15 02:42:00,21.9,-6.9,30.38,WSW,248,0.0,0.0,27,0.00,,,0.00,VWS V14.01,2013-01-15 10:42:00,
2013-01-15 02:43:00,21.9,-6.9,30.38,WSW,248,0.0,0.0,27,0.00,,,0.00,VWS V14.01,2013-01-15 10:43:00,
2013-01-15 02:44:00,21.9,-6.9,30.38,WSW,253,0.0,0.0,27,0.00,,,0.00,VWS V14.01,2013-01-15 10:44:00,
2013-01-15 02:45:00,22.1,-6.8,30.37,WSW,254,3.1,3.1,27,0.00,,CLR,0.00,VWS V14.01,2013-01-15 10:45:00,
2013-01-15 02:46:00,22.3,-6.6,30.38,WSW,254,2.2,3.1,27,0.00,,,0.00,VWS V14.01,2013-01-15 10:46:00,
2013-01-15 02:47:00,22.5,-6.5,30.38,WNW,285,4.0,4.9,27,0.00,,,0.00,VWS V14.01,2013-01-15 10:47:00,
2013-01-15 02:48:00,22.8,-6.1,30.38,WNW,300,5.4,8.7,27,0.00,,,0.00,VWS V14.01,2013-01-15 10:48:00,
2013-01-15 02:49:00,23.0,-6.0,30.38,WNW,300,4.0,5.4,27,0.00,,,0.00,VWS V14.01,2013-01-15 10:49:00,
2013-01-15 02:50:00,23.5,-5.5,30.37,WNW,300,0.0,0.0,27,0.00,,CLR,0.00,VWS V14.01,2013-01-15 10:50:00,
2013-01-15 02:51:00,23.5,-5.5,30.38,WNW,300,0.0,0.0,27,0.00,,,0.00,VWS V14.01,2013-01-15 10:51:00,
2013-01-15 02:52:00,23.5,-5.5,30.38,WNW,301,4.5,4.5,27,0.00,,,0.00,VWS V14.01,2013-01-15 10:52:00,
2013-01-15 02:53:00,23.7,-5.4,30.38,WNW,300,3.1,5.8,27,0.00,,,0.00,VWS V14.01,2013-01-15 10:53:00,
2013-01-15 02:54:00,24.1,-5.1,30.38,WNW,300,0.0,5.4,27,0.00,,,0.00,VWS V14.01,2013-01-15 10:54:00,
2013-01-15 02:55:00,24.3,-4.9,30.37,WNW,300,0.0,0.0,27,0.00,,CLR,0.00,VWS V14.01,2013-01-15 10:55:00,
2013-01-15 02:56:00,24.3,-4.9,30.38,WNW,300,0.0,0.0,27,0.00,,,0.00,VWS V14.01,2013-01-15 10:56:00,
2013-01-15 02:57:00,24.3,-4.9,30.38,WNW,300,0.0,0.0,27,0.00,,,0.00,VWS V14.01,2013-01-15 10:57:00,
2013-01-15 02:58:00,24.4,-4.7,30.38,WNW,300,0.0,0.0,27,0.00,,,0.00,VWS V14.01,2013-01-15 10:58:00,
2013-01-15 02:59:00,24.4,-4.7,30.38,WNW,300,0.0,0.0,27,0.00,,,0.00,VWS V14.01,2013-01-15 10:59:00,
2013-01-15 03:00:00,24.4,-4.7,30.37,WNW,300,0.0,0.0,27,0.00,,CLR,0.00,VWS V14.01,2013-01-15 11:00:00,
2013-01-15 03:01:00,24.4,-4.7,30.38,WNW,300,0.0,0.0,27,0.00,,,0.00,VWS V14.01,2013-01-15 11:01:00,
2013-01-15 03:02:00,24.4,-4.7,30.38,WNW,300,0.0,0.0,27,0.00,,,0.00,VWS V14.01,2013-01-15 11:02:00,
2013-01-15 03:03:00,24.4,-4.7,30.38,WNW,300,0.0,0.0,27,0.00,,,0.00,VWS V14.01,2013-01-15 11:03:00,
2013-01-15 03:04:00,24.1,-5.1,30.38,WNW,300,0.0,0.0,27,0.00,,,0.00,VWS V14.01,2013-01-15 11:04:00,
2013-01-15 03:05:00,23.7,-5.4,30.37,WNW,300,0.0,0.0,27,0.00,,CLR,0.00,VWS V14.01,2013-01-15 11:05:00,
2013-01-15 03:06:00,23.7,-5.4,30.38,WNW,301,0.0,0.0,27,0.00,,,0.00,VWS V14.01,2013-01-15 11:06:00,
2013-01-15 03:07:00,23.5,-5.5,30.38,WNW,300,0.0,0.0,27,0.00,,,0.00,VWS V14.01,2013-01-15 11:07:00,
2013-01-15 03:08:00,23.4,-5.7,30.38,WNW,301,0.0,0.0,27,0.00,,,0.00,VWS V14.01,2013-01-15 11:08:00,
2013-01-15 03:09:00,23.2,-5.8,30.38,WNW,300,0.0,0.0,27,0.00,,,0.00,VWS V14.01,2013-01-15 11:09:00,
2013-01-15 03:10:00,22.8,-6.1,30.37,WNW,301,0.0,0.0,27,0.00,,CLR,0.00,VWS V14.01,2013-01-15 11:10:00,
2013-01-15 03:15:00,22.1,-6.8,30.37,WNW,301,0.0,0.0,27,0.00,,CLR,0.00,VWS V14.01,2013-01-15 11:15:00,
2013-01-15 03:20:00,21.6,-7.2,30.37,NNW,330,4.0,4.0,27,0.00,,,0.00,VWS V14.01,2013-01-15 11:20:00,
2013-01-15 03:25:00,21.2,-7.6,30.37,NNW,332,3.6,3.6,27,0.00,,,0.00,VWS V14.01,2013-01-15 11:25:00,
2013-01-15 03:30:00,21.2,-7.6,30.37,NW,317,0.0,0.0,27,0.00,,,0.00,VWS V14.01,2013-01-15 11:30:00,
2013-01-15 03:35:00,21.4,-7.4,30.37,NW,325,0.0,0.0,27,0.00,,,0.00,VWS V14.01,2013-01-15 11:35:00,
2013-01-15 03:40:00,21.6,-7.2,30.37,NW,325,0.0,0.0,27,0.00,,,0.00,VWS V14.01,2013-01-15 11:40:00,
2013-01-15 03:45:00,21.7,-7.1,30.37,NW,324,0.0,0.0,27,0.00,,,0.00,VWS V14.01,2013-01-15 11:45:00,
2013-01-15 03:50:00,21.6,-7.2,30.37,NW,325,0.0,0.0,27,0.00,,,0.00,VWS V14.01,2013-01-15 11:50:00,
2013-01-15 03:55:00,21.7,-7.1,30.37,NW,325,0.0,0.0,27,0.00,,,0.00,VWS V14.01,2013-01-15 11:55:00,
2013-01-15 04:00:00,21.9,-6.9,30.37,NW,324,0.0,0.0,27,0.00,,CLR,0.00,VWS V14.01,2013-01-15 12:00:00,
2013-01-15 04:05:00,21.9,-6.9,30.37,NW,324,0.0,0.0,27,0.00,,CLR,0.00,VWS V14.01,2013-01-15 12:05:00,
2013-01-15 04:10:00,21.6,-7.2,30.37,NW,324,0.0,0.0,27,0.00,,CLR,0.00,VWS V14.01,2013-01-15 12:10:00,
2013-01-15 04:15:00,21.4,-7.4,30.37,NW,325,0.0,0.0,27,0.00,,CLR,0.00,VWS V14.01,2013-01-15 12:15:00,
2013-01-15 04:20:00,21.2,-7.6,30.37,NW,324,0.0,0.0,27,0.00,,CLR,0.00,VWS V14.01,2013-01-15 12:20:00,
2013-01-15 04:25:00,21.2,-7.6,30.37,NW,325,0.0,0.0,27,0.00,,CLR,0.00,VWS V14.01,2013-01-15 12:25:00,
2013-01-15 04:30:00,21.0,-7.7,30.37,NW,324,0.0,0.0,27,0.00,,CLR,0.00,VWS V14.01,2013-01-15 12:30:00,
2013-01-15 04:35:00,20.8,-7.9,30.40,NW,324,0.0,0.0,27,0.00,,CLR,0.00,VWS V14.01,2013-01-15 12:35:00,
2013-01-15 04:40:00,20.5,-8.2,30.40,NW,324,0.0,0.0,27,0.00,,CLR,0.00,VWS V14.01,2013-01-15 12:40:00,
2013-01-15 04:45:00,20.5,-8.2,30.40,NW,324,0.0,0.0,27,0.00,,CLR,0.00,VWS V14.01,2013-01-15 12:45:00,
2013-01-15 04:50:00,20.7,-8.0,30.37,NW,324,0.0,0.0,27,0.00,,CLR,0.00,VWS V14.01,2013-01-15 12:50:00,
2013-01-15 04:55:00,20.8,-7.9,30.37,NW,325,0.0,0.0,27,0.00,,CLR,0.00,VWS V14.01,2013-01-15 12:55:00,
2013-01-15 05:00:00,20.8,-7.9,30.37,NW,324,0.0,0.0,27,0.00,,CLR,0.00,VWS V14.01,2013-01-15 13:00:00,
2013-01-15 05:05:00,20.7,-8.0,30.37,NW,324,0.0,0.0,27,0.00,,CLR,0.00,VWS V14.01,2013-01-15 13:05:00,
2013-01-15 05:10:00,20.8,-7.9,30.37,NW,325,0.0,0.0,27,0.00,,CLR,0.00,VWS V14.01,2013-01-15 13:10:00,
2013-01-15 05:15:00,20.8,-7.9,30.37,NW,324,0.0,0.0,27,0.00,,CLR,0.00,VWS V14.01,2013-01-15 13:15:00,
2013-01-15 05:20:00,21.0,-7.7,30.37,North,3,3.6,3.6,27,0.00,,CLR,0.00,VWS V14.01,2013-01-15 13:20:00,
2013-01-15 05:25:00,21.0,-7.7,30.37,North,7,4.9,4.9,27,0.00,,CLR,0.00,VWS V14.01,2013-01-15 13:25:00,
2013-01-15 05:30:00,21.2,-7.6,30.37,North,11,2.7,4.9,27,0.00,,CLR,0.00,VWS V14.01,2013-01-15 13:30:00,
2013-01-15 05:35:00,21.6,-7.2,30.37,NW,317,4.9,4.9,27,0.00,,CLR,0.00,VWS V14.01,2013-01-15 13:35:00,
2013-01-15 05:40:00,21.4,-7.4,30.37,NNW,329,5.4,5.4,27,0.00,,CLR,0.00,VWS V14.01,2013-01-15 13:40:00,
2013-01-15 05:45:00,21.4,-7.4,30.37,NNW,334,2.7,2.7,27,0.00,,CLR,0.00,VWS V14.01,2013-01-15 13:45:00,
2013-01-15 05:50:00,21.9,-6.9,30.37,NW,322,2.2,2.7,27,0.00,,CLR,0.00,VWS V14.01,2013-01-15 13:50:00,
2013-01-15 05:55:00,22.3,-6.6,30.40,NNW,327,3.1,3.1,27,0.00,,CLR,0.00,VWS V14.01,2013-01-15 13:55:00,
2013-01-15 06:00:00,22.5,-6.5,30.40,NNW,328,0.0,0.0,27,0.00,,CLR,0.00,VWS V14.01,2013-01-15 14:00:00,
2013-01-15 06:05:00,22.5,-6.5,30.40,NNW,328,0.0,0.0,27,0.00,,CLR,0.00,VWS V14.01,2013-01-15 14:05:00,
2013-01-15 06:10:00,22.6,-6.3,30.40,North,4,0.0,0.0,27,0.00,,CLR,0.00,VWS V14.01,2013-01-15 14:10:00,
2013-01-15 06:15:00,22.8,-6.1,30.40,North,4,0.0,0.0,27,0.00,,CLR,0.00,VWS V14.01,2013-01-15 14:15:00,
2013-01-15 06:20:00,22.6,-6.3,30.40,North,0,4.0,4.0,27,0.00,,CLR,0.00,VWS V14.01,2013-01-15 14:20:00,
2013-01-15 06:25:00,22.5,-6.5,30.40,North,0,4.0,4.0,27,0.00,,CLR,0.00,VWS V14.01,2013-01-15 14:25:00,
2013-01-15 06:30:00,22.3,-6.6,30.40,North,0,4.0,4.0,27,0.00,,CLR,0.00,VWS V14.01,2013-01-15 14:30:00,
2013-01-15 06:35:00,22.3,-6.6,30.40,North,0,4.0,4.0,27,0.00,,CLR,0.00,VWS V14.01,2013-01-15 14:35:00,
2013-01-15 06:40:00,22.3,-6.6,30.40,NW,316,0.0,4.0,27,0.00,,CLR,0.00,VWS V14.01,2013-01-15 14:40:00,
2013-01-15 06:45:00,22.3,-6.6,30.40,NW,316,0.0,0.0,27,0.00,,CLR,0.00,VWS V14.01,2013-01-15 14:45:00,
2013-01-15 06:50:00,22.3,-6.6,30.40,NW,316,0.0,0.0,27,0.00,,CLR,0.00,VWS V14.01,2013-01-15 14:50:00,
2013-01-15 06:55:00,22.1,-6.8,30.40,NW,316,0.0,0.0,27,0.00,,CLR,0.00,VWS V14.01,2013-01-15 14:55:00,
2013-01-15 07:00:00,22.5,-6.5,30.40,NW,316,0.0,0.0,27,0.00,,CLR,0.00,VWS V14.01,2013-01-15 15:00:00,
2013-01-15 07:05:00,22.8,-6.1,30.40,NW,317,0.0,0.0,27,0.00,,CLR,0.00,VWS V14.01,2013-01-15 15:05:00,
2013-01-15 07:10:00,23.2,-5.8,30.40,NW,317,0.0,0.0,27,0.00,,CLR,0.00,VWS V14.01,2013-01-15 15:10:00,
2013-01-15 07:15:00,23.5,-5.5,30.40,NW,317,0.0,0.0,27,0.00,,CLR,0.00,VWS V14.01,2013-01-15 15:15:00,
2013-01-15 07:20:00,24.1,-5.1,30.40,NW,317,0.0,0.0,27,0.00,,CLR,0.00,VWS V14.01,2013-01-15 15:20:00,
2013-01-15 07:25:00,24.3,-4.9,30.40,NW,317,0.0,0.0,27,0.00,,CLR,0.00,VWS V14.01,2013-01-15 15:25:00,
2013-01-15 07:30:00,24.8,-4.4,30.43,NW,316,0.0,0.0,27,0.00,,CLR,0.00,VWS V14.01,2013-01-15 15:30:00,
2013-01-15 07:35:00,25.0,-5.1,30.46,NW,316,0.0,0.0,26,0.00,,CLR,0.00,VWS V14.01,2013-01-15 15:35:00,
2013-01-15 07:40:00,25.3,-4.7,30.46,NW,317,0.0,0.0,26,0.00,,CLR,0.00,VWS V14.01,2013-01-15 15:40:00,
2013-01-15 07:45:00,25.7,-4.4,30.46,NW,316,0.0,0.0,26,0.00,,CLR,0.00,VWS V14.01,2013-01-15 15:45:00,
2013-01-15 07:50:00,26.2,-4.0,30.46,NW,317,0.0,0.0,26,0.00,,CLR,0.00,VWS V14.01,2013-01-15 15:50:00,
2013-01-15 07:55:00,26.6,-3.7,30.46,NW,316,0.0,0.0,26,0.00,,CLR,0.00,VWS V14.01,2013-01-15 15:55:00,
2013-01-15 08:00:00,27.3,-3.0,30.46,NW,317,0.0,0.0,26,0.00,,FEW250,0.00,VWS V14.01,2013-01-15 16:00:00,
2013-01-15 08:05:00,28.6,-2.8,30.46,NW,316,0.0,0.0,25,0.00,,FEW250,0.00,VWS V14.01,2013-01-15 16:05:00,
2013-01-15 08:10:00,29.1,-2.3,30.46,NW,317,0.0,0.0,25,0.00,,FEW250,0.00,VWS V14.01,2013-01-15 16:10:00,
2013-01-15 08:15:00,30.0,-1.5,30.46,NW,316,0.0,0.0,25,0.00,,FEW250,0.00,VWS V14.01,2013-01-15 16:15:00,
2013-01-15 08:20:00,30.7,-0.9,30.46,NW,316,0.0,0.0,25,0.00,,FEW250,0.00,VWS V14.01,2013-01-15 16:20:00,
2013-01-15 08:25:00,31.6,-0.1,30.46,NW,318,0.0,0.0,25,0.00,,FEW250,0.00,VWS V14.01,2013-01-15 16:25:00,
2013-01-15 08:29:00,31.8,0.0,30.46,NW,319,0.0,0.0,25,0.00,,FEW250,0.00,VWS V14.01,2013-01-15 16:29:00,
2013-01-15 08:34:00,32.5,0.6,30.46,NW,318,0.0,0.0,25,0.00,,FEW250,0.00,VWS V14.01,2013-01-15 16:34:00,
2013-01-15 08:39:00,33.3,1.2,30.46,NW,326,0.0,0.0,25,0.00,,FEW250,0.00,VWS V14.01,2013-01-15 16:39:00,
2013-01-15 08:44:00,34.0,1.9,30.46,NNW,336,0.0,0.0,25,0.00,,FEW250,0.00,VWS V14.01,2013-01-15 16:44:00,
2013-01-15 08:49:00,34.3,2.2,30.46,NNW,335,0.0,0.0,25,0.00,,FEW250,0.00,VWS V14.01,2013-01-15 16:49:00,
2013-01-15 08:54:00,34.3,2.2,30.46,NNW,336,0.0,0.0,25,0.00,,FEW250,0.00,VWS V14.01,2013-01-15 16:54:00,
2013-01-15 08:59:00,34.5,2.3,30.46,NNW,336,0.0,0.0,25,0.00,,FEW250,0.00,VWS V14.01,2013-01-15 16:59:00,
2013-01-15 09:04:00,34.9,2.6,30.46,NNW,335,0.0,0.0,25,0.00,,FEW250,0.00,VWS V14.01,2013-01-15 17:04:00,
2013-01-15 09:09:00,35.4,3.1,30.46,NNW,335,0.0,0.0,25,0.00,,FEW250,0.00,VWS V14.01,2013-01-15 17:09:00,
2013-01-15 09:14:00,36.0,2.7,30.46,NNW,335,0.0,0.0,24,0.00,,FEW250,0.00,VWS V14.01,2013-01-15 17:14:00,
2013-01-15 09:19:00,36.9,3.5,30.46,NNW,334,0.0,0.0,24,0.00,,FEW250,0.00,VWS V14.01,2013-01-15 17:19:00,
2013-01-15 09:24:00,37.6,4.1,30.46,NNW,331,0.0,0.0,24,0.00,,FEW250,0.00,VWS V14.01,2013-01-15 17:24:00,
2013-01-15 09:29:00,37.9,4.4,30.46,NW,320,0.0,0.0,24,0.00,,FEW250,0.00,VWS V14.01,2013-01-15 17:29:00,
2013-01-15 09:34:00,38.5,4.8,30.46,NW,321,0.0,0.0,24,0.00,,FEW250,0.00,VWS V14.01,2013-01-15 17:34:00,
2013-01-15 09:39:00,38.5,4.8,30.46,NW,326,0.0,0.0,24,0.00,,FEW250,0.00,VWS V14.01,2013-01-15 17:39:00,
2013-01-15 09:44:00,38.8,5.2,30.46,North,1,0.0,0.0,24,0.00,,FEW250,0.00,VWS V14.01,2013-01-15 17:44:00,
2013-01-15 09:49:00,38.8,5.2,30.46,NNE,24,3.6,5.4,24,0.00,,FEW250,0.00,VWS V14.01,2013-01-15 17:49:00,
2013-01-15 09:54:00,38.5,4.8,30.46,NNE,22,0.0,0.0,24,0.00,,FEW250,0.00,VWS V14.01,2013-01-15 17:54:00,
2013-01-15 09:59:00,38.7,5.0,30.46,NNE,21,0.0,0.0,24,0.00,,FEW250,0.00,VWS V14.01,2013-01-15 17:59:00,
2013-01-15 10:04:00,38.5,4.8,30.46,NE,34,2.7,3.1,24,0.00,,FEW250,0.00,VWS V14.01,2013-01-15 18:04:00,
2013-01-15 10:09:00,38.1,4.5,30.46,ESE,103,3.6,5.4,24,0.00,,FEW250,0.00,VWS V14.01,2013-01-15 18:09:00,
2013-01-15 10:14:00,36.3,3.0,30.46,ENE,66,2.7,4.5,24,0.00,,FEW250,0.00,VWS V14.01,2013-01-15 18:14:00,
2013-01-15 10:19:00,35.8,2.5,30.46,ENE,74,0.0,5.4,24,0.00,,FEW250,0.00,VWS V14.01,2013-01-15 18:19:00,
2013-01-15 10:24:00,36.1,2.8,30.46,East,95,0.0,6.3,24,0.00,,FEW250,0.00,VWS V14.01,2013-01-15 18:24:00,
2013-01-15 10:29:00,36.1,2.8,30.46,East,100,0.0,0.0,24,0.00,,FEW250,0.00,VWS V14.01,2013-01-15 18:29:00,
2013-01-15 10:34:00,36.7,3.3,30.46,ENE,57,5.8,5.8,24,0.00,,FEW250,0.00,VWS V14.01,2013-01-15 18:34:00,
2013-01-15 10:39:00,37.6,4.1,30.46,ENE,62,3.1,4.0,24,0.00,,FEW250,0.00,VWS V14.01,2013-01-15 18:39:00,
2013-01-15 10:44:00,37.6,4.1,30.46,East,88,5.4,6.3,24,0.00,,FEW250,0.00,VWS V14.01,2013-01-15 18:44:00,
2013-01-15 10:49:00,37.4,3.9,30.46,East,99,4.0,4.0,24,0.00,,FEW250,0.00,VWS V14.01,2013-01-15 18:49:00,
2013-01-15 10:54:00,37.4,3.9,30.43,ESE,106,5.4,5.4,24,0.00,,FEW250,0.00,VWS V14.01,2013-01-15 18:54:00,
2013-01-15 10:59:00,37.4,3.9,30.43,ESE,104,6.3,6.3,24,0.00,,FEW250,0.00,VWS V14.01,2013-01-15 18:59:00,
2013-01-15 11:04:00,37.4,3.9,30.43,ESE,107,7.2,7.2,24,0.00,,FEW250,0.00,VWS V14.01,2013-01-15 19:04:00,
2013-01-15 11:09:00,37.8,4.2,30.43,ESE,105,5.8,7.2,24,0.00,,FEW250,0.00,VWS V14.01,2013-01-15 19:09:00,
2013-01-15 11:14:00,37.6,4.1,30.43,ESE,120,5.4,6.3,24,0.00,,FEW250,0.00,VWS V14.01,2013-01-15 19:14:00,
2013-01-15 11:19:00,37.6,4.1,30.43,ESE,116,5.4,5.8,24,0.00,,FEW250,0.00,VWS V14.01,2013-01-15 19:19:00,
2013-01-15 11:24:00,38.1,4.5,30.43,ESE,107,4.0,8.1,24,0.00,,FEW250,0.00,VWS V14.01,2013-01-15 19:24:00,
2013-01-15 11:32:00,38.5,4.8,30.43,East,79,5.4,5.4,24,0.00,,,0.00,VWS V14.01,2013-01-15 19:32:00,
2013-01-15 11:36:00,38.5,4.8,30.40,East,96,3.6,3.6,24,0.00,,,0.00,VWS V14.01,2013-01-15 19:36:00,
2013-01-15 11:41:00,39.2,4.5,30.40,ESE,108,0.0,4.0,23,0.00,,,0.00,VWS V14.01,2013-01-15 19:41:00,
2013-01-15 11:46:00,39.6,4.8,30.40,East,95,4.9,5.8,23,0.00,,,0.00,VWS V14.01,2013-01-15 19:46:00,
2013-01-15 11:51:00,39.7,5.0,30.40,East,95,2.7,3.1,23,0.00,,,0.00,VWS V14.01,2013-01-15 19:51:00,
2013-01-15 11:56:00,40.5,5.6,30.40,East,96,0.0,0.0,23,0.00,,,0.00,VWS V14.01,2013-01-15 19:56:00,
2013-01-15 12:01:00,41.0,6.1,30.40,East,97,3.6,4.9,23,0.00,,FEW250,0.00,VWS V14.01,2013-01-15 20:01:00,
2013-01-15 12:06:00,41.5,6.5,30.40,SSE,156,0.0,2.2,23,0.00,,FEW250,0.00,VWS V14.01,2013-01-15 20:06:00,
2013-01-15 12:11:00,41.7,6.7,30.40,SE,142,0.0,0.0,23,0.00,,FEW250,0.00,VWS V14.01,2013-01-15 20:11:00,
2013-01-15 12:16:00,42.4,7.3,30.40,South,178,5.8,5.8,23,0.00,,FEW250,0.00,VWS V14.01,2013-01-15 20:16:00,
2013-01-15 12:21:00,42.4,7.3,30.37,South,181,5.4,6.3,23,0.00,,FEW250,0.00,VWS V14.01,2013-01-15 20:21:00,
2013-01-15 12:26:00,41.9,6.8,30.37,SSW,200,5.8,7.6,23,0.00,,FEW250,0.00,VWS V14.01,2013-01-15 20:26:00,
2013-01-15 12:31:00,41.4,6.4,30.37,South,181,7.6,7.6,23,0.00,,FEW250,0.00,VWS V14.01,2013-01-15 20:31:00,
2013-01-15 12:36:00,41.4,6.4,30.37,South,172,8.3,8.3,23,0.00,,FEW250,0.00,VWS V14.01,2013-01-15 20:36:00,
2013-01-15 12:41:00,41.5,6.5,30.37,SSE,168,0.0,6.3,23,0.00,,FEW250,0.00,VWS V14.01,2013-01-15 20:41:00,
2013-01-15 12:46:00,41.5,6.5,30.37,SE,144,5.8,7.6,23,0.00,,FEW250,0.00,VWS V14.01,2013-01-15 20:46:00,
2013-01-15 12:51:00,41.7,6.7,30.37,SSE,161,4.9,8.1,23,0.00,,FEW250,0.00,VWS V14.01,2013-01-15 20:51:00,
2013-01-15 12:56:00,41.9,6.8,30.37,SE,142,5.4,8.3,23,0.00,,FEW250,0.00,VWS V14.01,2013-01-15 20:56:00,
2013-01-15 13:01:00,42.3,7.1,30.37,SSE,150,6.3,8.7,23,0.00,,FEW250,0.00,VWS V14.01,2013-01-15 21:01:00,
2013-01-15 13:06:00,42.3,7.1,30.37,SE,139,7.6,7.6,23,0.00,,FEW250,0.00,VWS V14.01,2013-01-15 21:06:00,
2013-01-15 13:11:00,42.3,7.1,30.37,SE,144,6.3,8.1,23,0.00,,FEW250,0.00,VWS V14.01,2013-01-15 21:11:00,
2013-01-15 13:16:00,42.8,7.6,30.37,South,170,4.0,4.0,23,0.00,,FEW250,0.00,VWS V14.01,2013-01-15 21:16:00,
2013-01-15 13:21:00,43.5,8.2,30.37,SE,140,7.6,7.6,23,0.00,,FEW250,0.00,VWS V14.01,2013-01-15 21:21:00,
2013-01-15 13:26:00,43.5,8.2,30.37,ESE,114,4.9,4.9,23,0.00,,FEW250,0.00,VWS V14.01,2013-01-15 21:26:00,
2013-01-15 13:31:00,43.9,8.5,30.37,SE,142,6.3,6.3,23,0.00,,FEW250,0.00,VWS V14.01,2013-01-15 21:31:00,
2013-01-15 13:36:00,44.2,8.8,30.37,ESE,122,5.4,6.3,23,0.00,,FEW250,0.00,VWS V14.01,2013-01-15 21:36:00,
2013-01-15 13:41:00,44.1,8.6,30.37,ESE,120,3.6,4.9,23,0.00,,FEW250,0.00,VWS V14.01,2013-01-15 21:41:00,
2013-01-15 13:46:00,44.4,8.9,30.37,SSE,148,3.1,4.0,23,0.00,,FEW250,0.00,VWS V14.01,2013-01-15 21:46:00,
2013-01-15 13:51:00,44.8,8.3,30.37,SE,130,5.4,5.8,22,0.00,,FEW250,0.00,VWS V14.01,2013-01-15 21:51:00,
2013-01-15 13:56:00,44.8,8.3,30.37,SSE,167,5.4,5.4,22,0.00,,FEW250,0.00,VWS V14.01,2013-01-15 21:56:00,
2013-01-15 14:01:00,44.8,8.3,30.37,SSW,195,0.0,3.1,22,0.00,,FEW250,0.00,VWS V14.01,2013-01-15 22:01:00,
2013-01-15 14:06:00,45.3,8.7,30.37,SSE,159,2.2,3.6,22,0.00,,FEW250,0.00,VWS V14.01,2013-01-15 22:06:00,
2013-01-15 14:11:00,45.7,9.0,30.37,East,101,3.1,5.8,22,0.00,,FEW250,0.00,VWS V14.01,2013-01-15 22:11:00,
2013-01-15 14:16:00,45.7,9.0,30.37,SE,128,4.9,5.4,22,0.00,,FEW250,0.00,VWS V14.01,2013-01-15 22:16:00,
2013-01-15 14:21:00,45.9,9.2,30.37,SSE,158,4.5,6.3,22,0.00,,FEW250,0.00,VWS V14.01,2013-01-15 22:21:00,
2013-01-15 14:26:00,46.4,9.6,30.37,South,179,3.6,4.0,22,0.00,,FEW250,0.00,VWS V14.01,2013-01-15 22:26:00,
2013-01-15 14:31:00,46.4,9.6,30.37,SE,125,2.7,4.0,22,0.00,,FEW250,0.00,VWS V14.01,2013-01-15 22:31:00,
2013-01-15 14:36:00,46.6,9.8,30.37,SE,134,4.0,4.9,22,0.00,,FEW250,0.00,VWS V14.01,2013-01-15 22:36:00,
2013-01-15 14:41:00,46.6,9.8,30.37,SE,145,4.9,4.9,22,0.00,,FEW250,0.00,VWS V14.01,2013-01-15 22:41:00,
2013-01-15 14:46:00,46.2,9.5,30.37,SE,125,4.0,5.8,22,0.00,,FEW250,0.00,VWS V14.01,2013-01-15 22:46:00,
2013-01-15 14:51:00,46.4,9.6,30.37,SE,136,3.1,3.1,22,0.00,,FEW250,0.00,VWS V14.01,2013-01-15 22:51:00,
2013-01-15 14:56:00,47.1,10.2,30.37,South,180,0.0,0.0,22,0.00,,FEW250,0.00,VWS V14.01,2013-01-15 22:56:00,
2013-01-15 15:01:00,47.3,10.4,30.37,South,186,5.8,6.3,22,0.00,,FEW250,0.00,VWS V14.01,2013-01-15 23:01:00,
2013-01-15 15:06:00,46.8,9.9,30.37,SE,127,5.8,5.8,22,0.00,,FEW250,0.00,VWS V14.01,2013-01-15 23:06:00,
2013-01-15 15:11:00,46.2,9.5,30.37,SE,127,2.7,3.6,22,0.00,,FEW250,0.00,VWS V14.01,2013-01-15 23:11:00,
2013-01-15 15:16:00,46.4,9.6,30.37,ESE,118,4.0,4.0,22,0.00,,FEW250,0.00,VWS V14.01,2013-01-15 23:16:00,
2013-01-15 15:21:00,46.6,9.8,30.37,ESE,119,3.6,3.6,22,0.00,,FEW250,0.00,VWS V14.01,2013-01-15 23:21:00,
2013-01-15 15:26:00,46.6,9.8,30.37,SSE,156,5.4,5.4,22,0.00,,FEW250,0.00,VWS V14.01,2013-01-15 23:26:00,
2013-01-15 15:31:00,46.8,9.9,30.37,South,184,2.7,5.4,22,0.00,,FEW250,0.00,VWS V14.01,2013-01-15 23:31:00,
2013-01-15 15:36:00,46.8,9.9,30.37,South,183,2.7,3.1,22,0.00,,FEW250,0.00,VWS V14.01,2013-01-15 23:36:00,
2013-01-15 15:41:00,46.9,10.1,30.37,SSW,193,4.9,4.9,22,0.00,,FEW250,0.00,VWS V14.01,2013-01-15 23:41:00,
2013-01-15 15:46:00,46.6,9.8,30.37,South,182,5.8,5.8,22,0.00,,FEW250,0.00,VWS V14.01,2013-01-15 23:46:00,
2013-01-15 15:51:00,46.4,9.6,30.37,South,186,4.5,4.5,22,0.00,,FEW250,0.00,VWS V14.01,2013-01-15 23:51:00,
2013-01-15 15:56:00,46.6,9.8,30.37,South,182,0.0,0.0,22,0.00,,FEW250,0.00,VWS V14.01,2013-01-15 23:56:00,
2013-01-15 16:01:00,46.8,9.9,30.37,South,170,2.7,2.7,22,0.00,,FEW250,0.00,VWS V14.01,2013-01-16 00:01:00,
2013-01-15 16:06:00,46.8,9.9,30.37,South,172,4.0,4.0,22,0.00,,FEW250,0.00,VWS V14.01,2013-01-16 00:06:00,
2013-01-15 16:11:00,46.6,9.8,30.37,South,187,0.0,0.0,22,0.00,,FEW250,0.00,VWS V14.01,2013-01-16 00:11:00,
2013-01-15 16:16:00,46.6,9.8,30.37,South,185,5.4,5.4,22,0.00,,FEW250,0.00,VWS V14.01,2013-01-16 00:16:00,
2013-01-15 16:21:00,46.6,9.8,30.37,South,180,0.0,3.6,22,0.00,,FEW250,0.00,VWS V14.01,2013-01-16 00:21:00,
2013-01-15 16:26:00,46.4,9.6,30.37,South,173,5.4,5.4,22,0.00,,FEW250,0.00,VWS V14.01,2013-01-16 00:26:00,
2013-01-15 16:31:00,45.9,9.2,30.37,SSE,155,3.6,4.0,22,0.00,,FEW250,0.00,VWS V14.01,2013-01-16 00:31:00,
2013-01-15 16:36:00,45.3,8.7,30.37,SSE,152,2.7,4.9,22,0.00,,FEW250,0.00,VWS V14.01,2013-01-16 00:36:00,
2013-01-15 16:41:00,44.8,8.3,30.37,SSE,157,4.9,4.9,22,0.00,,FEW250,0.00,VWS V14.01,2013-01-16 00:41:00,
2013-01-15 16:46:00,44.4,8.9,30.37,SSE,158,3.6,3.6,23,0.00,,FEW250,0.00,VWS V14.01,2013-01-16 00:46:00,
2013-01-15 16:51:00,44.1,8.6,30.37,SSE,152,4.9,5.8,23,0.00,,FEW250,0.00,VWS V14.01,2013-01-16 00:51:00,
2013-01-15 16:56:00,43.7,8.3,30.37,SSE,158,4.0,4.0,23,0.00,,FEW250,0.00,VWS V14.01,2013-01-16 00:56:00,
2013-01-15 17:01:00,43.3,8.0,30.37,SE,138,3.6,3.6,23,0.00,,FEW250,0.00,VWS V14.01,2013-01-16 01:01:00,
2013-01-15 17:06:00,43.2,7.9,30.37,SE,138,0.0,0.0,23,0.00,,FEW250,0.00,VWS V14.01,2013-01-16 01:06:00,
2013-01-15 17:11:00,42.8,7.6,30.37,SE,134,4.9,5.4,23,0.00,,FEW250,0.00,VWS V14.01,2013-01-16 01:11:00,
2013-01-15 17:16:00,42.6,7.4,30.37,SE,134,4.0,4.0,23,0.00,,FEW250,0.00,VWS V14.01,2013-01-16 01:16:00,
2013-01-15 17:21:00,42.4,7.3,30.37,SE,134,0.0,3.6,23,0.00,,FEW250,0.00,VWS V14.01,2013-01-16 01:21:00,
2013-01-15 17:26:00,42.3,7.1,30.37,SE,135,0.0,0.0,23,0.00,,FEW250,0.00,VWS V14.01,2013-01-16 01:26:00,
2013-01-15 17:31:00,42.1,7.0,30.37,SE,134,0.0,0.0,23,0.00,,FEW250,0.00,VWS V14.01,2013-01-16 01:31:00,
2013-01-15 17:36:00,41.7,6.7,30.40,SE,134,0.0,0.0,23,0.00,,FEW250,0.00,VWS V14.01,2013-01-16 01:36:00,
2013-01-15 17:41:00,41.5,6.5,30.40,SE,135,0.0,0.0,23,0.00,,FEW250,0.00,VWS V14.01,2013-01-16 01:41:00,
2013-01-15 17:46:00,41.4,6.4,30.40,SE,134,0.0,0.0,23,0.00,,FEW250,0.00,VWS V14.01,2013-01-16 01:46:00,
2013-01-15 17:51:00,41.0,6.1,30.40,SE,134,0.0,0.0,23,0.00,,FEW250,0.00,VWS V14.01,2013-01-16 01:51:00,
2013-01-15 17:55:00,40.6,5.8,30.40,SE,135,0.0,0.0,23,0.00,,FEW250,0.00,VWS V14.01,2013-01-16 01:55:00,
2013-01-15 18:00:00,40.3,5.4,30.40,SE,135,0.0,0.0,23,0.00,,FEW250,0.00,VWS V14.01,2013-01-16 02:00:00,
2013-01-15 18:05:00,39.9,5.1,30.40,SSW,198,0.0,0.0,23,0.00,,FEW250,0.00,VWS V14.01,2013-01-16 02:05:00,
2013-01-15 18:10:00,39.6,4.8,30.40,SW,223,4.0,4.9,23,0.00,,FEW250,0.00,VWS V14.01,2013-01-16 02:10:00,
2013-01-15 18:15:00,39.4,4.7,30.40,SW,224,3.6,4.0,23,0.00,,FEW250,0.00,VWS V14.01,2013-01-16 02:15:00,
2013-01-15 18:20:00,39.2,4.5,30.40,SW,223,3.1,3.1,23,0.00,,FEW250,0.00,VWS V14.01,2013-01-16 02:20:00,
2013-01-15 18:25:00,39.2,4.5,30.40,SW,223,3.1,3.1,23,0.00,,FEW250,0.00,VWS V14.01,2013-01-16 02:25:00,
2013-01-15 18:30:00,39.2,4.5,30.40,SW,223,0.0,0.0,23,0.00,,FEW250,0.00,VWS V14.01,2013-01-16 02:30:00,
2013-01-15 18:35:00,39.0,5.3,30.40,SW,223,0.0,0.0,24,0.00,,FEW250,0.00,VWS V14.01,2013-01-16 02:35:00,
2013-01-15 18:40:00,38.7,5.0,30.40,SW,223,0.0,0.0,24,0.00,,FEW250,0.00,VWS V14.01,2013-01-16 02:40:00,
2013-01-15 18:45:00,38.5,4.8,30.40,SW,223,0.0,0.0,24,0.00,,FEW250,0.00,VWS V14.01,2013-01-16 02:45:00,
2013-01-15 18:50:00,37.9,4.4,30.40,SW,223,0.0,0.0,24,0.00,,FEW250,0.00,VWS V14.01,2013-01-16 02:50:00,
2013-01-15 18:55:00,37.8,4.2,30.40,SW,223,0.0,0.0,24,0.00,,FEW250,0.00,VWS V14.01,2013-01-16 02:55:00,
2013-01-15 19:00:00,37.4,3.9,30.40,SW,223,0.0,0.0,24,0.00,,FEW250,0.00,VWS V14.01,2013-01-16 03:00:00,
2013-01-15 19:05:00,37.0,3.6,30.40,SW,223,0.0,0.0,24,0.00,,FEW250,0.00,VWS V14.01,2013-01-16 03:05:00,
2013-01-15 19:10:00,36.9,3.5,30.40,SW,223,0.0,0.0,24,0.00,,FEW250,0.00,VWS V14.01,2013-01-16 03:10:00,
2013-01-15 19:15:00,37.0,3.6,30.40,SW,223,0.0,0.0,24,0.00,,FEW250,0.00,VWS V14.01,2013-01-16 03:15:00,
2013-01-15 19:20:00,37.0,3.6,30.40,SW,223,0.0,0.0,24,0.00,,FEW250,0.00,VWS V14.01,2013-01-16 03:20:00,
2013-01-15 19:25:00,36.9,3.5,30.40,SW,223,0.0,0.0,24,0.00,,FEW250,0.00,VWS V14.01,2013-01-16 03:25:00,
2013-01-15 19:30:00,36.7,3.3,30.40,SW,223,0.0,0.0,24,0.00,,FEW250,0.00,VWS V14.01,2013-01-16 03:30:00,
2013-01-15 19:35:00,36.3,3.0,30.43,SW,223,0.0,0.0,24,0.00,,FEW250,0.00,VWS V14.01,2013-01-16 03:35:00,
2013-01-15 19:40:00,36.1,2.8,30.43,SW,223,0.0,0.0,24,0.00,,FEW250,0.00,VWS V14.01,2013-01-16 03:40:00,
2013-01-15 19:45:00,35.4,3.1,30.43,SW,223,0.0,0.0,25,0.00,,FEW250,0.00,VWS V14.01,2013-01-16 03:45:00,
2013-01-15 19:50:00,34.9,2.6,30.43,SW,223,0.0,0.0,25,0.00,,FEW250,0.00,VWS V14.01,2013-01-16 03:50:00,
2013-01-15 19:55:00,34.3,2.2,30.43,SW,223,0.0,0.0,25,0.00,,FEW250,0.00,VWS V14.01,2013-01-16 03:55:00,
2013-01-15 20:00:00,34.2,2.0,30.43,SW,223,0.0,0.0,25,0.00,,FEW250,0.00,VWS V14.01,2013-01-16 04:00:00,
2013-01-15 20:05:00,34.2,2.0,30.43,SW,223,0.0,0.0,25,0.00,,FEW250,0.00,VWS V14.01,2013-01-16 04:05:00,
2013-01-15 20:10:00,34.2,2.0,30.43,SW,223,0.0,0.0,25,0.00,,FEW250,0.00,VWS V14.01,2013-01-16 04:10:00,
2013-01-15 20:15:00,34.2,2.0,30.43,SW,223,0.0,0.0,25,0.00,,FEW250,0.00,VWS V14.01,2013-01-16 04:15:00,
2013-01-15 20:20:00,34.2,2.0,30.43,SW,223,0.0,0.0,25,0.00,,FEW250,0.00,VWS V14.01,2013-01-16 04:20:00,
2013-01-15 20:25:00,34.0,1.9,30.43,WSW,237,3.6,3.6,25,0.00,,FEW250,0.00,VWS V14.01,2013-01-16 04:25:00,
2013-01-15 20:30:00,34.0,1.9,30.43,WSW,239,4.0,4.0,25,0.00,,FEW250,0.00,VWS V14.01,2013-01-16 04:30:00,
2013-01-15 20:35:00,34.0,1.9,30.43,WSW,239,4.0,4.0,25,0.00,,FEW250,0.00,VWS V14.01,2013-01-16 04:35:00,
2013-01-15 20:40:00,34.0,1.9,30.43,WSW,239,4.0,4.0,25,0.00,,FEW250,0.00,VWS V14.01,2013-01-16 04:40:00,
2013-01-15 20:45:00,34.0,1.9,30.43,WNW,292,3.6,4.0,25,0.00,,FEW250,0.00,VWS V14.01,2013-01-16 04:45:00,
2013-01-15 20:50:00,34.0,1.9,30.43,WNW,292,3.6,3.6,25,0.00,,FEW250,0.00,VWS V14.01,2013-01-16 04:50:00,
2013-01-15 20:55:00,34.0,1.9,30.43,WNW,293,2.7,2.7,25,0.00,,FEW250,0.00,VWS V14.01,2013-01-16 04:55:00,
2013-01-15 21:00:00,34.0,1.9,30.43,WNW,293,4.9,4.9,25,0.00,,FEW250,0.00,VWS V14.01,2013-01-16 05:00:00,
2013-01-15 21:02:00,34.0,1.9,30.43,WNW,293,4.9,4.9,25,0.00,,FEW250,0.00,VWS V14.01,2013-01-16 05:02:00,
2013-01-15 21:03:00,34.0,1.9,30.43,WNW,293,4.9,4.9,25,0.00,,FEW250,0.00,VWS V14.01,2013-01-16 05:03:00,
2013-01-15 21:08:00,34.0,1.9,30.43,WNW,293,4.9,4.9,25,0.00,,FEW250,0.00,VWS V14.01,2013-01-16 05:08:00,
2013-01-15 21:13:00,34.0,1.9,30.43,WNW,292,0.0,4.9,25,0.00,,FEW250,0.00,VWS V14.01,2013-01-16 05:13:00,
2013-01-15 21:18:00,34.0,1.9,30.43,WNW,292,0.0,0.0,25,0.00,,FEW250,0.00,VWS V14.01,2013-01-16 05:18:00,
2013-01-15 21:23:00,33.8,1.7,30.43,WNW,293,0.0,0.0,25,0.00,,FEW250,0.00,VWS V14.01,2013-01-16 05:23:00,
2013-01-15 21:28:00,33.4,1.4,30.43,WNW,294,0.0,0.0,25,0.00,,FEW250,0.00,VWS V14.01,2013-01-16 05:28:00,
2013-01-15 21:33:00,33.4,1.4,30.43,WNW,294,0.0,0.0,25,0.00,,FEW250,0.00,VWS V14.01,2013-01-16 05:33:00,
2013-01-15 21:38:00,33.4,1.4,30.43,WNW,294,0.0,0.0,25,0.00,,FEW250,0.00,VWS V14.01,2013-01-16 05:38:00,
2013-01-15 21:43:00,33.4,1.4,30.43,WNW,297,2.7,2.7,25,0.00,,FEW250,0.00,VWS V14.01,2013-01-16 05:43:00,
2013-01-15 21:48:00,33.4,1.4,30.43,WNW,297,2.7,2.7,25,0.00,,FEW250,0.00,VWS V14.01,2013-01-16 05:48:00,
2013-01-15 21:53:00,33.4,1.4,30.43,WNW,297,2.7,2.7,25,0.00,,FEW250,0.00,VWS V14.01,2013-01-16 05:53:00,
2013-01-15 21:58:00,33.4,1.4,30.43,WNW,297,2.7,2.7,25,0.00,,FEW250,0.00,VWS V14.01,2013-01-16 05:58:00,
2013-01-15 22:03:00,33.4,1.4,30.43,WNW,297,2.7,2.7,25,0.00,,FEW250,0.00,VWS V14.01,2013-01-16 06:03:00,
2013-01-15 22:08:00,33.4,1.4,30.43,WNW,297,2.7,2.7,25,0.00,,FEW250,0.00,VWS V14.01,2013-01-16 06:08:00,
2013-01-15 22:13:00,33.4,1.4,30.43,WNW,297,3.1,3.1,25,0.00,,FEW250,0.00,VWS V14.01,2013-01-16 06:13:00,
2013-01-15 22:18:00,33.4,1.4,30.43,WNW,297,3.1,3.1,25,0.00,,FEW250,0.00,VWS V14.01,2013-01-16 06:18:00,
2013-01-15 22:23:00,33.4,1.4,30.43,WNW,292,4.9,4.9,25,0.00,,FEW250,0.00,VWS V14.01,2013-01-16 06:23:00,
2013-01-15 22:28:00,33.4,1.4,30.43,WNW,292,4.9,4.9,25,0.00,,FEW250,0.00,VWS V14.01,2013-01-16 06:28:00,
2013-01-15 22:33:00,33.4,1.4,30.43,WNW,292,4.9,4.9,25,0.00,,FEW250,0.00,VWS V14.01,2013-01-16 06:33:00,
2013-01-15 22:38:00,33.4,1.4,30.43,WNW,292,4.9,4.9,25,0.00,,FEW250,0.00,VWS V14.01,2013-01-16 06:38:00,
2013-01-15 22:43:00,33.4,1.4,30.43,WNW,298,0.0,0.0,25,0.00,,FEW250,0.00,VWS V14.01,2013-01-16 06:43:00,
2013-01-15 22:48:00,33.4,1.4,30.43,WNW,298,0.0,0.0,25,0.00,,FEW250,0.00,VWS V14.01,2013-01-16 06:48:00,
2013-01-15 22:53:00,31.1,-0.6,30.43,WNW,297,0.0,0.0,25,0.00,,FEW250,0.00,VWS V14.01,2013-01-16 06:53:00,
2013-01-15 22:58:00,31.1,-0.6,30.43,WNW,298,0.0,0.0,25,0.00,,FEW250,0.00,VWS V14.01,2013-01-16 06:58:00,
2013-01-15 23:03:00,31.1,-0.6,30.43,WNW,298,0.0,0.0,25,0.00,,FEW250,0.00,VWS V14.01,2013-01-16 07:03:00,
2013-01-15 23:08:00,31.1,-0.6,30.43,WNW,298,0.0,0.0,25,0.00,,FEW250,0.00,VWS V14.01,2013-01-16 07:08:00,
2013-01-15 23:13:00,30.7,-0.9,30.43,WNW,297,0.0,0.0,25,0.00,,FEW250,0.00,VWS V14.01,2013-01-16 07:13:00,
2013-01-15 23:18:00,30.4,-1.2,30.43,WNW,297,0.0,0.0,25,0.00,,FEW250,0.00,VWS V14.01,2013-01-16 07:18:00,
2013-01-15 23:23:00,30.0,-1.5,30.43,WNW,301,4.0,5.4,25,0.00,,FEW250,0.00,VWS V14.01,2013-01-16 07:23:00,
2013-01-15 23:28:00,29.8,-1.7,30.43,WNW,301,0.0,0.0,25,0.00,,FEW250,0.00,VWS V14.01,2013-01-16 07:28:00,
2013-01-15 23:33:00,29.7,-1.8,30.43,WNW,301,0.0,0.0,25,0.00,,FEW250,0.00,VWS V14.01,2013-01-16 07:33:00,
2013-01-15 23:38:00,29.7,-1.8,30.43,WNW,300,2.7,3.6,25,0.00,,FEW250,0.00,VWS V14.01,2013-01-16 07:38:00,
2013-01-15 23:43:00,29.8,-1.7,30.43,WNW,296,5.4,6.3,25,0.00,,FEW250,0.00,VWS V14.01,2013-01-16 07:43:00,
2013-01-15 23:48:00,30.0,-1.5,30.43,NW,305,4.0,6.3,25,0.00,,FEW250,0.00,VWS V14.01,2013-01-16 07:48:00,
2013-01-15 23:53:00,30.0,-1.5,30.43,WNW,298,0.0,0.0,25,0.00,,FEW250,0.00,VWS V14.01,2013-01-16 07:53:00,
2013-01-15 23:58:00,30.2,-1.4,30.43,WNW,298,0.0,0.0,25,0.00,,FEW250,0.00,VWS V14.01,2013-01-16 07:58:00,